Time;durP1;ratioP1;P1;durP2;ratioP2;P2;SDS_P1;SDS_P2;PMS_P1;PMS_P2;Temp;Humidity;BMP_temperature;BMP_pressure;BME280_temperature;BME280_humidity;BME280_pressure;Samples;Min_cycle;Max_cycle;Signal;HPM_P1;HPM_P2
2022/07/26 00:01:13;;;;;;;;;1.00;1.00;;;;;22.01;48.99;101189.06;5074746;28;45497;-83
2022/07/26 00:03:38;;;;;;;;;1.00;0.50;;;;;21.77;49.48;101162.41;5072254;28;47341;-84
2022/07/26 00:09:44;;;;;;;;;0.25;0.00;;;;;21.71;49.95;101175.81;5074385;28;45401;-83
2022/07/26 00:12:09;;;;;;;;;0.00;0.00;;;;;21.66;49.73;101180.31;5073886;27;45304;-83
2022/07/26 00:14:35;;;;;;;;;1.00;1.00;;;;;21.56;49.72;101166.97;5073477;27;46429;-84
2022/07/26 00:17:01;;;;;;;;;1.00;1.00;;;;;21.68;49.90;101197.25;5073723;28;45388;-84
2022/07/26 00:19:26;;;;;;;;;0.00;0.00;;;;;21.63;50.22;101197.28;5072253;28;45260;-84
2022/07/26 00:22:32;;;;;;;;;1.00;1.00;;;;;21.52;50.35;101183.91;5073949;28;45464;-85
2022/07/26 00:24:38;;;;;;;;;1.00;1.00;;;;;21.50;50.64;101192.84;5073627;27;46163;-83
2022/07/26 00:27:04;;;;;;;;;0.75;0.75;;;;;21.37;50.67;101170.59;5073557;28;45394;-84
2022/07/26 00:29:29;;;;;;;;;1.25;1.00;;;;;21.33;50.62;101160.84;5073872;28;45417;-83
2022/07/26 00:31:54;;;;;;;;;0.00;0.00;;;;;21.47;50.77;101191.06;5073705;27;45319;-84
2022/07/26 00:34:20;;;;;;;;;0.25;0.25;;;;;21.18;50.89;101140.34;5073391;27;45604;-83
2022/07/26 00:36:45;;;;;;;;;0.00;0.00;;;;;21.31;51.07;101175.97;5071871;28;45457;-83
2022/07/26 00:39:10;;;;;;;;;1.25;1.25;;;;;21.44;50.59;101196.44;5073488;27;45380;-84
2022/07/26 00:41:36;;;;;;;;;1.75;1.75;;;;;21.46;50.61;101197.31;5073684;27;45421;-83
2022/07/26 00:44:01;;;;;;;;;0.00;0.00;;;;;21.47;50.95;101196.41;5073478;28;46394;-84
2022/07/26 00:46:27;;;;;;;;;1.00;0.00;;;;;21.36;50.44;101171.50;5073115;28;45275;-84
2022/07/26 00:48:52;;;;;;;;;2.00;1.00;;;;;21.43;51.29;101181.31;5073184;27;45418;-83
2022/07/26 00:51:19;;;;;;;;;0.25;0.25;;;;;21.48;51.07;101192.00;5073511;27;45522;-83
2022/07/26 00:53:45;;;;;;;;;1.00;1.00;;;;;21.50;50.92;101187.50;5073130;27;45445;-83
2022/07/26 00:56:13;;;;;;;;;1.00;1.00;;;;;21.42;51.37;101176.81;5074670;27;45887;-84
2022/07/26 00:58:39;;;;;;;;;0.00;0.00;;;;;21.34;51.12;101159.94;5076874;27;45290;-83
2022/07/26 01:01:04;;;;;;;;;1.75;1.25;;;;;21.43;51.24;101175.94;5076661;28;45520;-84
2022/07/26 01:03:30;;;;;;;;;0.00;0.00;;;;;21.35;51.31;101172.41;5076806;28;46234;-83
2022/07/26 01:05:55;;;;;;;;;1.00;1.00;;;;;21.26;51.30;101165.25;5076714;27;45472;-83
2022/07/26 01:08:20;;;;;;;;;2.00;2.00;;;;;21.33;51.24;101180.44;5076866;27;45530;-83
2022/07/26 01:10:46;;;;;;;;;0.25;0.25;;;;;21.28;51.36;101167.91;5075340;27;45394;-83
2022/07/26 01:13:12;;;;;;;;;0.50;0.00;;;;;21.19;51.55;101151.91;5075262;28;47802;-83
2022/07/26 01:15:37;;;;;;;;;0.00;0.00;;;;;21.11;51.41;101142.13;5076415;27;46099;-82
2022/07/26 01:18:03;;;;;;;;;1.75;1.00;;;;;21.37;51.41;101192.00;5076937;27;45591;-83
2022/07/26 01:20:28;;;;;;;;;1.00;1.00;;;;;21.19;51.92;101163.50;5076161;27;45457;-83
2022/07/26 01:22:54;;;;;;;;;1.00;0.25;;;;;21.17;51.93;101162.59;5076416;27;46111;-84
2022/07/26 01:25:32;;;;;;;;;0.00;0.00;;;;;21.28;51.71;101192.88;5074910;28;45873;-83
2022/07/26 01:27:57;;;;;;;;;1.50;0.75;;;;;21.17;51.90;101169.72;5075079;28;45453;-83
2022/07/26 01:30:22;;;;;;;;;1.00;1.00;;;;;21.16;51.97;101171.50;5075166;27;45553;-84
2022/07/26 01:32:48;;;;;;;;;1.00;0.00;;;;;21.04;52.13;101161.75;5075109;28;46996;-84
2022/07/26 01:35:13;;;;;;;;;0.50;0.00;;;;;21.07;52.34;101172.41;5075681;28;48057;-83
2022/07/26 01:37:38;;;;;;;;;0.00;0.00;;;;;20.94;52.37;101149.28;5076047;27;45705;-83
2022/07/26 01:40:05;;;;;;;;;1.00;0.75;;;;;20.87;52.42;101151.06;5074924;28;45560;-83
2022/07/26 01:42:30;;;;;;;;;1.00;1.00;;;;;20.97;52.43;101170.66;5074915;28;48193;-83
2022/07/26 01:44:56;;;;;;;;;1.75;1.25;;;;;20.86;53.02;101157.31;5076106;28;45496;-84
2022/07/26 01:47:21;;;;;;;;;0.25;0.00;;;;;20.73;52.75;101136.81;5074964;28;45705;-83
2022/07/26 01:49:46;;;;;;;;;1.00;1.00;;;;;20.69;52.75;101132.41;5075817;28;45675;-84
2022/07/26 01:52:12;;;;;;;;;0.00;0.00;;;;;20.72;53.20;101143.06;5075990;27;46457;-83
2022/07/26 01:54:37;;;;;;;;;0.00;0.00;;;;;20.61;53.36;101139.50;5074502;28;45457;-83
2022/07/26 01:57:03;;;;;;;;;2.00;1.00;;;;;20.69;53.32;101160.88;5075990;28;45338;-83
2022/07/26 01:59:28;;;;;;;;;0.75;0.75;;;;;20.47;53.45;101120.81;5075968;27;45504;-83
2022/07/26 02:01:53;;;;;;;;;1.00;1.00;;;;;20.64;53.75;101149.28;5075976;27;46304;-83
2022/07/26 02:07:03;;;;;;;;;1.00;1.00;;;;;20.64;53.21;101159.97;5075728;28;45387;-82
2022/07/26 02:09:28;;;;;;;;;1.00;0.00;;;;;20.50;53.49;101142.19;5074606;28;45700;-82
2022/07/26 02:11:53;;;;;;;;;1.00;1.00;;;;;20.55;53.55;101158.22;5075644;27;46435;-82
2022/07/26 02:14:19;;;;;;;;;1.00;0.00;;;;;20.55;53.68;101168.91;5075716;28;45299;-83
2022/07/26 02:16:44;;;;;;;;;1.00;1.00;;;;;20.30;53.90;101130.59;5075998;27;45676;-83
2022/07/26 02:19:10;;;;;;;;;1.00;1.00;;;;;20.29;54.47;101134.13;5073717;28;45295;-83
2022/07/26 02:21:35;;;;;;;;;0.25;0.00;;;;;20.56;54.43;101179.56;5075478;27;45430;-83
2022/07/26 02:24:01;;;;;;;;;1.75;1.00;;;;;20.50;54.39;101174.25;5075651;27;45383;-83
2022/07/26 02:26:26;;;;;;;;;1.00;1.00;;;;;20.63;53.75;101174.22;5075528;28;45319;-83
2022/07/26 02:28:51;;;;;;;;;1.00;0.00;;;;;20.59;53.89;101157.31;5074309;28;45530;-83
2022/07/26 02:31:17;;;;;;;;;0.00;0.00;;;;;20.70;53.79;101163.56;5075498;27;45518;-83
2022/07/26 02:33:42;;;;;;;;;0.50;0.50;;;;;20.79;53.85;101176.03;5073628;28;45361;-83
2022/07/26 02:36:07;;;;;;;;;1.00;0.25;;;;;20.85;53.44;101184.03;5075418;27;45481;-83
2022/07/26 02:38:36;;;;;;;;;0.00;0.00;;;;;20.90;53.71;101184.03;5075332;27;45383;-83
2022/07/26 02:41:01;;;;;;;;;1.00;1.00;;;;;20.88;53.58;101176.00;5073715;28;48178;-83
2022/07/26 02:43:27;;;;;;;;;2.00;1.00;;;;;20.77;53.82;101154.63;5073626;28;45648;-83
2022/07/26 02:45:52;;;;;;;;;0.75;0.75;;;;;20.98;53.66;101182.22;5075122;28;45480;-83
2022/07/26 02:48:18;;;;;;;;;0.25;0.25;;;;;20.99;53.29;101181.34;5073700;27;45516;-83
2022/07/26 02:50:43;;;;;;;;;0.25;0.25;;;;;20.99;53.90;101179.56;5073324;28;47214;-83
2022/07/26 02:53:08;;;;;;;;;1.00;1.00;;;;;20.79;53.94;101138.63;5075146;27;45476;-84
2022/07/26 02:55:34;;;;;;;;;0.00;0.00;;;;;20.74;53.81;101135.03;5075199;27;45291;-83
2022/07/26 02:57:59;;;;;;;;;0.50;0.00;;;;;20.87;53.80;101164.41;5075046;27;45430;-83
2022/07/26 03:00:26;;;;;;;;;1.00;1.00;;;;;21.06;53.88;101196.47;5073284;27;46960;-83
2022/07/26 03:02:51;;;;;;;;;1.50;0.75;;;;;20.90;53.60;101162.66;5075098;27;45964;-83
2022/07/26 03:05:17;;;;;;;;;1.00;1.00;;;;;21.05;53.82;101187.56;5073352;27;45304;-84
2022/07/26 03:07:43;;;;;;;;;0.25;0.25;;;;;20.90;53.71;101158.19;5074905;27;45390;-83
2022/07/26 03:10:08;;;;;;;;;3.00;2.00;;;;;20.86;54.04;101148.41;5075387;27;46493;-83
2022/07/26 03:12:34;;;;;;;;;1.50;1.25;;;;;20.95;53.99;101172.44;5074702;27;45790;-84
2022/07/26 03:14:59;;;;;;;;;1.00;1.00;;;;;20.98;54.41;101180.44;5073705;27;45722;-83
2022/07/26 03:17:24;;;;;;;;;1.00;0.75;;;;;20.98;54.22;101172.41;5074879;27;45337;-84
2022/07/26 03:19:50;;;;;;;;;1.00;1.00;;;;;20.83;54.02;101153.72;5072044;27;47055;-83
2022/07/26 03:22:15;;;;;;;;;1.00;1.00;;;;;20.88;53.76;101165.31;5074650;28;45362;-84
2022/07/26 03:24:41;;;;;;;;;2.00;1.25;;;;;20.94;54.26;101175.13;5074669;28;45528;-84
2022/07/26 03:27:06;;;;;;;;;1.00;1.00;;;;;20.84;54.17;101152.88;5073300;28;45322;-83
2022/07/26 03:29:31;;;;;;;;;1.75;1.50;;;;;20.94;54.25;101162.66;5074416;28;45446;-84
2022/07/26 03:31:57;;;;;;;;;2.00;0.00;;;;;20.83;54.25;101151.06;5073301;28;45455;-83
2022/07/26 03:34:22;;;;;;;;;1.50;1.00;;;;;21.05;54.47;101190.25;5072933;28;45347;-84
2022/07/26 03:36:48;;;;;;;;;1.00;1.00;;;;;21.07;54.17;101193.78;5074346;28;45356;-83
2022/07/26 03:39:13;;;;;;;;;1.00;1.00;;;;;20.83;53.70;101161.75;5073114;28;46993;-83
2022/07/26 03:41:39;;;;;;;;;1.00;1.00;;;;;20.81;54.43;101167.09;5074248;27;45629;-83
2022/07/26 03:44:05;;;;;;;;;0.75;0.75;;;;;20.85;54.41;101176.03;5074435;28;45599;-84
2022/07/26 03:46:30;;;;;;;;;1.25;0.00;;;;;20.81;54.40;101167.09;5074126;28;45687;-84
2022/07/26 03:48:56;;;;;;;;;1.00;1.00;;;;;20.70;54.00;101166.22;5073727;28;45484;-84
2022/07/26 03:51:21;;;;;;;;;1.75;1.00;;;;;20.85;55.06;101197.41;5072818;28;45364;-83
2022/07/26 03:53:46;;;;;;;;;1.25;1.00;;;;;20.95;55.08;101215.19;5074373;27;45435;-83
2022/07/26 03:56:27;;;;;;;;;0.25;0.25;;;;;20.72;55.08;101168.88;5072930;28;45283;-84
2022/07/26 03:58:53;;;;;;;;;1.00;1.00;;;;;20.80;54.90;101177.81;5074057;28;46480;-84
2022/07/26 04:01:18;;;;;;;;;0.75;0.75;;;;;20.87;54.80;101203.63;5073928;27;45307;-84
2022/07/26 04:03:44;;;;;;;;;1.00;0.25;;;;;20.84;55.14;101195.63;5072404;28;45279;-84
2022/07/26 04:06:09;;;;;;;;;1.00;0.50;;;;;20.87;55.32;101195.59;5072764;28;45511;-83
2022/07/26 04:08:35;;;;;;;;;1.00;1.00;;;;;20.90;55.16;101200.06;5073632;28;45395;-83
2022/07/26 04:11:01;;;;;;;;;1.75;1.00;;;;;20.81;55.42;101182.25;5072659;28;45426;-84
2022/07/26 04:13:26;;;;;;;;;1.25;1.00;;;;;20.78;55.56;101174.22;5074049;28;45633;-83
2022/07/26 04:15:52;;;;;;;;;2.00;1.00;;;;;20.83;55.44;101184.00;5073910;28;45263;-83
2022/07/26 04:18:18;;;;;;;;;1.75;1.75;;;;;20.92;55.37;101199.16;5073721;27;45406;-84
2022/07/26 04:20:43;;;;;;;;;0.25;0.25;;;;;20.84;55.71;101188.50;5073535;28;45342;-85
2022/07/26 04:23:09;;;;;;;;;1.00;1.00;;;;;21.03;55.61;101208.09;5073874;28;45483;-84
2022/07/26 04:25:34;;;;;;;;;1.00;1.00;;;;;20.97;55.45;101196.47;5073825;27;45425;-84
2022/07/26 04:28:01;;;;;;;;;1.00;1.00;;;;;21.07;55.54;101198.25;5073489;28;46512;-84
2022/07/26 04:30:27;;;;;;;;;0.00;0.00;;;;;21.06;55.52;101197.38;5071006;27;45722;-85
2022/07/26 04:32:52;;;;;;;;;1.25;1.00;;;;;21.01;55.68;101191.13;5072425;28;45539;-85
2022/07/26 04:35:17;;;;;;;;;1.00;1.00;;;;;21.01;55.54;101184.91;5073306;27;45406;-86
2022/07/26 04:37:44;;;;;;;;;2.00;2.00;;;;;21.08;55.89;101203.63;5073389;27;45378;-85
2022/07/26 04:40:14;;;;;;;;;1.25;1.25;;;;;21.08;55.80;101211.63;5072371;28;45731;-84
2022/07/26 04:42:40;;;;;;;;;0.75;0.75;;;;;21.07;55.88;101200.94;5072439;28;45532;-84
2022/07/26 04:45:06;;;;;;;;;2.00;2.00;;;;;20.99;56.11;101186.69;5071905;28;45615;-83
2022/07/26 04:47:31;;;;;;;;;1.00;1.00;;;;;20.84;55.53;101169.78;5073260;27;46402;-85
2022/07/26 04:49:56;;;;;;;;;2.00;1.00;;;;;20.99;55.89;101205.41;5071629;28;45711;-83
2022/07/26 04:52:22;;;;;;;;;2.00;2.00;;;;;21.03;56.31;101207.16;5072251;28;45469;-84
2022/07/26 04:54:47;;;;;;;;;1.25;1.25;;;;;21.07;55.86;101207.16;5072355;28;45375;-84
2022/07/26 04:57:12;;;;;;;;;1.00;1.00;;;;;20.81;56.19;101168.88;5073324;27;46464;-83
2022/07/26 04:59:38;;;;;;;;;1.00;1.00;;;;;21.09;56.08;101215.19;5072099;28;45919;-84
2022/07/26 05:02:03;;;;;;;;;2.00;1.75;;;;;21.17;56.40;101228.53;5073565;28;45448;-84
2022/07/26 05:04:28;;;;;;;;;2.25;1.00;;;;;20.92;56.26;101193.81;5073096;28;45366;-84
2022/07/26 05:06:54;;;;;;;;;1.75;1.75;;;;;21.06;56.48;101209.84;5071481;28;48443;-83
2022/07/26 05:09:19;;;;;;;;;2.75;2.00;;;;;21.00;56.28;101194.72;5073557;28;45600;-85
2022/07/26 05:11:44;;;;;;;;;1.00;1.00;;;;;21.10;56.11;101207.16;5073426;28;45628;-84
2022/07/26 05:14:10;;;;;;;;;1.00;1.00;;;;;21.08;56.70;101210.72;5071806;27;45307;-84
2022/07/26 05:16:35;;;;;;;;;2.50;1.75;;;;;21.26;55.95;101241.91;5073301;28;45522;-84
2022/07/26 05:19:00;;;;;;;;;1.75;1.00;;;;;21.04;56.10;101204.50;5072787;28;45707;-84
2022/07/26 05:21:26;;;;;;;;;3.25;1.25;;;;;21.18;56.26;101214.28;5073381;27;45590;-84
2022/07/26 05:23:53;;;;;;;;;1.25;1.25;;;;;21.17;56.28;101212.50;5071993;28;45485;-83
2022/07/26 05:26:18;;;;;;;;;2.00;1.75;;;;;21.25;56.21;101221.41;5073180;27;46373;-85
2022/07/26 05:28:44;;;;;;;;;3.00;2.50;;;;;21.31;56.31;101235.69;5072807;28;45465;-84
2022/07/26 05:31:09;;;;;;;;;3.25;2.00;;;;;21.40;56.59;101252.63;5071461;27;45382;-83
2022/07/26 05:33:35;;;;;;;;;1.50;1.00;;;;;21.32;56.25;101234.78;5071145;28;45542;-83
2022/07/26 05:36:00;;;;;;;;;2.00;2.00;;;;;21.44;56.24;101246.38;5073028;28;45577;-83
2022/07/26 05:38:26;;;;;;;;;1.00;1.00;;;;;21.31;55.78;101216.06;5072533;28;45433;-83
2022/07/26 05:40:51;;;;;;;;;1.00;1.00;;;;;21.47;56.25;101244.56;5072831;27;45427;-83
2022/07/26 05:43:17;;;;;;;;;2.00;2.00;;;;;21.44;56.10;101241.03;5074182;27;45430;-83
2022/07/26 05:45:42;;;;;;;;;2.25;1.50;;;;;21.50;56.31;101247.22;5075956;28;45442;-84
2022/07/26 05:48:08;;;;;;;;;2.75;2.75;;;;;21.41;56.21;101231.22;5075988;28;47253;-83
2022/07/26 05:50:33;;;;;;;;;3.00;3.00;;;;;21.54;56.34;101246.34;5074600;28;45552;-83
2022/07/26 05:52:58;;;;;;;;;2.00;1.25;;;;;21.39;56.55;101216.97;5075998;28;45338;-83
2022/07/26 05:55:24;;;;;;;;;4.00;3.00;;;;;21.50;56.41;101233.88;5075867;27;46579;-83
2022/07/26 05:57:49;;;;;;;;;3.00;2.00;;;;;21.58;56.54;101245.44;5076292;27;45445;-83
2022/07/26 06:00:15;;;;;;;;;2.00;2.00;;;;;21.47;55.95;101220.47;5076116;28;45320;-84
2022/07/26 06:02:40;;;;;;;;;2.75;1.75;;;;;21.57;56.57;101243.63;5075978;27;45531;-82
2022/07/26 06:05:06;;;;;;;;;3.00;2.00;;;;;21.68;56.33;101257.00;5075376;28;46578;-84
2022/07/26 06:07:31;;;;;;;;;1.25;1.25;;;;;21.70;56.05;101257.00;5091600;27;45644;-82
2022/07/26 06:09:57;;;;;;;;;3.00;2.50;;;;;21.61;56.07;101249.88;5075909;27;45655;-83
2022/07/26 06:12:22;;;;;;;;;2.25;2.25;;;;;21.64;56.44;101256.13;5074286;27;45267;-84
2022/07/26 06:14:47;;;;;;;;;1.75;1.75;;;;;21.66;56.64;101255.22;5074437;28;47246;-83
2022/07/26 06:17:12;;;;;;;;;2.00;2.00;;;;;21.57;56.51;101234.72;5074255;28;45482;-83
2022/07/26 06:19:38;;;;;;;;;2.00;2.00;;;;;21.58;56.48;101237.41;5075497;28;45393;-84
2022/07/26 06:22:03;;;;;;;;;1.50;1.25;;;;;21.75;56.36;101263.22;5075818;27;45705;-83
2022/07/26 06:24:29;;;;;;;;;2.00;2.00;;;;;21.60;56.12;101232.06;5074130;28;47777;-84
2022/07/26 06:26:56;;;;;;;;;2.00;2.00;;;;;21.62;56.26;101230.25;5075306;27;45413;-83
2022/07/26 06:29:22;;;;;;;;;1.50;1.00;;;;;21.74;56.34;101258.78;5075427;27;45318;-83
2022/07/26 06:31:47;;;;;;;;;5.00;4.00;;;;;21.73;56.21;101252.53;5075376;28;45397;-83
2022/07/26 06:34:13;;;;;;;;;2.00;1.00;;;;;21.84;56.02;101279.25;5073379;28;48322;-83
2022/07/26 06:36:39;;;;;;;;;3.00;2.75;;;;;21.78;56.58;101276.59;5073944;28;45982;-84
2022/07/26 06:39:04;;;;;;;;;5.00;3.25;;;;;21.76;56.10;101265.88;5075438;27;45359;-82
2022/07/26 06:41:29;;;;;;;;;3.25;3.00;;;;;21.53;56.12;101216.94;5075223;27;45300;-83
2022/07/26 06:43:55;;;;;;;;;6.00;3.50;;;;;21.74;56.09;101256.97;5073829;28;48005;-83
2022/07/26 06:46:20;;;;;;;;;3.75;3.00;;;;;21.81;56.55;101260.53;5073693;28;45525;-84
2022/07/26 06:48:46;;;;;;;;;3.50;3.25;;;;;21.93;56.00;101281.91;5074734;27;45366;-83
2022/07/26 06:51:12;;;;;;;;;2.25;2.00;;;;;21.85;56.08;101265.84;5075127;27;45248;-84
2022/07/26 06:53:37;;;;;;;;;2.75;1.75;;;;;21.98;56.21;101280.09;5073089;27;47052;-83
2022/07/26 06:56:03;;;;;;;;;1.75;1.75;;;;;21.95;56.03;101266.72;5075006;27;45359;-83
2022/07/26 06:58:30;;;;;;;;;2.25;2.00;;;;;22.03;56.32;101274.72;5075222;27;45312;-83
2022/07/26 07:00:55;;;;;;;;;3.25;3.25;;;;;21.83;55.80;101230.19;5075435;28;45586;-84
2022/07/26 07:03:21;;;;;;;;;4.75;3.00;;;;;21.96;55.67;101248.88;5074381;28;46339;-85
2022/07/26 07:05:46;;;;;;;;;3.00;2.75;;;;;22.01;55.90;101261.31;5073886;28;45628;-83
2022/07/26 07:08:13;;;;;;;;;2.00;2.00;;;;;22.10;55.55;101282.72;5073698;28;45546;-84
2022/07/26 07:10:38;;;;;;;;;3.00;2.25;;;;;21.93;55.67;101236.41;5075017;27;45542;-83
2022/07/26 07:13:04;;;;;;;;;3.50;3.25;;;;;21.99;55.42;101240.84;5074561;28;45706;-83
2022/07/26 07:15:29;;;;;;;;;2.50;2.00;;;;;22.18;55.59;101273.81;5073443;28;45550;-84
2022/07/26 07:17:54;;;;;;;;;4.25;3.00;;;;;22.29;55.91;101282.66;5075142;28;45459;-84
2022/07/26 07:20:20;;;;;;;;;1.75;1.75;;;;;22.28;55.17;101288.94;5073037;28;45427;-84
2022/07/26 07:22:45;;;;;;;;;3.00;2.00;;;;;22.21;55.56;101280.00;5074849;27;46191;-85
2022/07/26 07:25:10;;;;;;;;;3.00;3.00;;;;;22.16;55.98;101260.41;5074723;27;45240;-84
2022/07/26 07:27:36;;;;;;;;;4.00;3.00;;;;;22.29;55.72;101270.16;5074740;27;45223;-85
2022/07/26 07:30:03;;;;;;;;;3.00;2.00;;;;;22.43;55.02;101288.84;5073597;27;45626;-85
2022/07/26 07:32:29;;;;;;;;;4.50;2.25;;;;;22.37;54.68;101268.34;5073073;28;47190;-84
2022/07/26 07:34:54;;;;;;;;;3.00;2.50;;;;;22.34;55.35;101259.44;5074060;27;45604;-85
2022/07/26 07:37:19;;;;;;;;;3.00;3.00;;;;;22.49;55.40;101274.53;5074545;27;45432;-83
2022/07/26 07:39:45;;;;;;;;;2.75;2.75;;;;;22.68;54.51;101303.00;5074430;28;45406;-84
2022/07/26 07:42:10;;;;;;;;;3.00;3.00;;;;;22.52;54.94;101270.06;5074655;27;45298;-83
2022/07/26 07:44:35;;;;;;;;;3.00;3.00;;;;;22.42;54.74;101241.53;5074206;27;45428;-83
2022/07/26 07:47:02;;;;;;;;;4.00;3.00;;;;;22.76;55.12;101278.81;5074285;27;45476;-83
2022/07/26 07:49:27;;;;;;;;;3.00;3.00;;;;;22.83;54.73;101280.56;5072693;28;45540;-84
2022/07/26 07:51:52;;;;;;;;;4.25;3.25;;;;;22.65;54.80;101250.28;5072994;27;48541;-83
2022/07/26 07:54:18;;;;;;;;;4.00;3.75;;;;;22.94;54.42;101277.81;5074119;27;45750;-84
2022/07/26 07:56:43;;;;;;;;;3.50;3.50;;;;;22.83;54.10;101243.91;5074356;27;45371;-83
2022/07/26 07:59:09;;;;;;;;;3.00;3.00;;;;;22.97;54.45;101273.34;5074173;27;45553;-84
2022/07/26 08:01:34;;;;;;;;;3.75;3.75;;;;;22.98;54.02;101267.06;5073980;27;45593;-84
2022/07/26 08:04:00;;;;;;;;;4.00;3.00;;;;;23.14;53.60;101289.25;5073654;28;45536;-83
2022/07/26 08:06:28;;;;;;;;;4.75;3.00;;;;;23.08;53.72;101271.44;5074102;27;45275;-83
2022/07/26 08:08:53;;;;;;;;;2.75;2.50;;;;;23.20;53.78;101281.16;5072637;28;45466;-83
2022/07/26 08:11:19;;;;;;;;;2.00;2.00;;;;;23.08;53.31;101254.47;5073841;28;46397;-83
2022/07/26 08:13:44;;;;;;;;;4.00;4.00;;;;;23.19;53.49;101276.72;5073771;28;45433;-83
2022/07/26 08:16:09;;;;;;;;;4.00;3.25;;;;;23.15;53.82;101269.59;5072581;28;45473;-83
2022/07/26 08:18:35;;;;;;;;;4.00;4.00;;;;;23.15;53.37;101265.16;5073329;28;45298;-82
2022/07/26 08:21:02;;;;;;;;;4.00;4.00;;;;;23.15;53.12;101261.53;5072627;28;48201;-82
2022/07/26 08:23:27;;;;;;;;;4.25;4.00;;;;;23.36;53.28;101287.31;5073706;28;45180;-83
2022/07/26 08:25:52;;;;;;;;;3.00;3.00;;;;;23.29;52.74;101258.75;5073870;27;45574;-82
2022/07/26 08:28:18;;;;;;;;;3.25;3.25;;;;;23.38;52.99;101266.69;5073746;27;45433;-83
2022/07/26 08:30:43;;;;;;;;;4.00;4.00;;;;;23.29;52.80;101238.16;5072173;28;48406;-83
2022/07/26 08:33:08;;;;;;;;;3.00;3.00;;;;;23.56;52.71;101281.75;5073578;28;45398;-83
2022/07/26 08:35:34;;;;;;;;;3.00;3.00;;;;;23.56;52.38;101268.31;5073175;27;45459;-83
2022/07/26 08:37:59;;;;;;;;;4.00;3.25;;;;;23.64;52.80;101291.53;5071991;27;45553;-82
2022/07/26 08:40:24;;;;;;;;;3.00;3.00;;;;;23.52;52.73;101278.19;5071933;28;46928;-83
2022/07/26 08:42:55;;;;;;;;;3.00;3.00;;;;;23.60;52.04;101279.00;5072235;28;45417;-83
2022/07/26 08:45:25;;;;;;;;;3.25;3.00;;;;;23.72;51.77;101290.53;5072062;28;45650;-82
2022/07/26 08:47:51;;;;;;;;;2.75;2.00;;;;;23.66;51.93;101281.66;5073427;28;45505;-83
2022/07/26 08:50:17;;;;;;;;;3.00;2.00;;;;;23.67;51.61;101291.47;5073099;28;46369;-82
2022/07/26 08:52:44;;;;;;;;;3.50;2.75;;;;;23.71;52.07;101295.03;5073202;27;45335;-83
2022/07/26 08:55:14;;;;;;;;;3.00;2.25;;;;;23.62;51.51;101290.59;5073497;27;45456;-83
2022/07/26 08:57:40;;;;;;;;;3.75;3.00;;;;;23.55;52.05;101267.44;5073312;27;45438;-83
2022/07/26 09:00:29;;;;;;;;;2.50;2.50;;;;;23.67;52.14;101283.44;5073076;27;45292;-83
2022/07/26 09:02:56;;;;;;;;;3.25;3.25;;;;;23.64;52.13;101270.06;5073222;27;45397;-83
2022/07/26 09:05:33;;;;;;;;;2.00;2.00;;;;;23.93;51.74;101318.03;5072922;27;45396;-82
2022/07/26 09:08:00;;;;;;;;;3.00;3.00;;;;;23.98;51.46;101320.66;5073334;27;45481;-83
2022/07/26 09:10:26;;;;;;;;;4.00;3.50;;;;;23.90;51.42;101310.03;5071660;28;48528;-83
2022/07/26 09:12:56;;;;;;;;;3.00;3.00;;;;;23.98;51.15;101326.03;5072948;28;45448;-83
2022/07/26 09:15:24;;;;;;;;;4.50;4.00;;;;;23.74;51.38;101283.34;5071754;28;45756;-83
2022/07/26 09:17:53;;;;;;;;;2.25;2.25;;;;;23.96;50.89;101327.84;5073978;28;45523;-82
2022/07/26 09:20:21;;;;;;;;;3.00;3.00;;;;;24.00;51.68;101320.66;5076031;28;45476;-83
2022/07/26 09:23:02;;;;;;;;;4.50;3.75;;;;;24.04;51.27;101326.00;5076485;27;45386;-83
2022/07/26 09:25:32;;;;;;;;;4.00;3.00;;;;;24.04;50.90;101306.28;5076608;27;45389;-82
2022/07/26 09:27:59;;;;;;;;;3.00;3.00;;;;;24.10;51.19;101315.16;5070550;28;45388;-83
2022/07/26 09:30:26;;;;;;;;;3.50;2.75;;;;;24.22;50.48;101340.09;5076305;27;45393;-83
2022/07/26 09:33:09;;;;;;;;;4.75;3.00;;;;;24.23;50.40;101328.44;5076265;28;45326;-82
2022/07/26 09:35:38;;;;;;;;;2.75;2.50;;;;;24.28;50.72;101334.63;5076001;27;45679;-83
2022/07/26 09:38:14;;;;;;;;;4.00;3.25;;;;;24.28;50.49;101322.09;5076157;27;45382;-83
2022/07/26 09:40:40;;;;;;;;;4.00;3.00;;;;;24.34;50.31;101329.22;5076151;27;45533;-83
2022/07/26 09:43:07;;;;;;;;;3.50;2.75;;;;;24.52;50.53;101334.34;5076105;27;45421;-83
2022/07/26 09:45:34;;;;;;;;;4.00;4.00;;;;;24.57;49.45;101331.59;5074701;28;45515;-82
2022/07/26 09:48:02;;;;;;;;;3.50;3.50;;;;;24.50;49.69;101308.41;5076300;27;45658;-83
2022/07/26 09:50:30;;;;;;;;;4.00;4.00;;;;;24.73;49.29;101337.63;5075848;27;45383;-83
2022/07/26 09:53:09;;;;;;;;;3.00;3.00;;;;;24.77;49.07;101337.56;5074802;28;45434;-84
2022/07/26 09:55:44;;;;;;;;;5.00;3.00;;;;;24.73;49.26;101343.94;5076163;27;45500;-84
2022/07/26 09:58:15;;;;;;;;;5.00;4.00;;;;;24.66;49.01;101336.84;5075988;27;45408;-84
2022/07/26 10:00:42;;;;;;;;;3.00;3.00;;;;;24.63;48.91;101339.56;5091421;27;46477;-84
2022/07/26 10:03:07;;;;;;;;;4.25;3.25;;;;;24.52;49.00;101320.03;5075966;27;45830;-83
2022/07/26 10:05:33;;;;;;;;;3.00;3.00;;;;;24.42;49.14;101304.03;5075712;28;44826;-84
2022/07/26 10:07:59;;;;;;;;;3.00;3.00;;;;;24.48;48.38;101311.09;5075869;27;45448;-83
2022/07/26 10:10:41;;;;;;;;;3.00;3.00;;;;;24.54;48.01;101329.84;5076143;27;46923;-84
2022/07/26 10:13:07;;;;;;;;;2.75;2.75;;;;;24.60;48.11;101345.00;5075934;27;45327;-84
2022/07/26 10:15:40;;;;;;;;;2.00;2.00;;;;;24.43;48.35;101321.94;5075961;27;45275;-83
2022/07/26 10:18:08;;;;;;;;;2.75;2.75;;;;;24.28;47.98;101297.03;5075562;27;45324;-83
2022/07/26 10:20:40;;;;;;;;;2.00;2.00;;;;;24.38;47.73;101326.50;5075015;27;45411;-83
2022/07/26 10:23:30;;;;;;;;;3.00;3.00;;;;;24.57;48.30;101348.59;5075645;27;45475;-82
2022/07/26 10:25:56;;;;;;;;;4.75;3.25;;;;;24.47;47.86;101312.03;5074319;28;45436;-83
2022/07/26 10:28:23;;;;;;;;;2.50;2.50;;;;;24.75;47.45;101338.53;5075454;27;45232;-83
2022/07/26 10:30:49;;;;;;;;;2.00;2.00;;;;;24.81;47.01;101336.63;5075493;27;46209;-83
2022/07/26 10:33:17;;;;;;;;;4.00;3.00;;;;;24.96;47.64;101344.47;5073925;28;45279;-83
2022/07/26 10:35:42;;;;;;;;;2.00;2.00;;;;;24.96;45.94;101331.00;5075220;27;45436;-82
2022/07/26 10:38:13;;;;;;;;;3.00;2.00;;;;;25.02;45.82;101326.44;5074032;28;45429;-83
2022/07/26 10:40:56;;;;;;;;;1.75;1.50;;;;;25.04;46.03;101325.53;5074005;28;47257;-83
2022/07/26 10:43:21;;;;;;;;;1.00;1.00;;;;;25.01;45.05;101292.41;5075070;27;45934;-83
2022/07/26 10:45:47;;;;;;;;;0.00;0.00;;;;;25.38;44.57;101342.03;5073844;27;45498;-82
2022/07/26 10:48:22;;;;;;;;;1.00;1.00;;;;;25.43;43.72;101329.41;5074951;27;48126;-84
2022/07/26 10:50:53;;;;;;;;;1.50;1.50;;;;;25.60;43.15;101344.34;5074707;27;45697;-83
2022/07/26 10:53:22;;;;;;;;;2.00;1.00;;;;;25.59;42.51;101329.13;5073797;28;45878;-82
2022/07/26 10:55:57;;;;;;;;;1.00;1.00;;;;;25.79;43.13;101344.94;5075236;27;45257;-83
2022/07/26 10:58:24;;;;;;;;;1.00;1.00;;;;;25.76;42.75;101318.94;5075206;27;45250;-83
2022/07/26 11:01:01;;;;;;;;;2.00;2.00;;;;;25.90;42.46;101353.69;5075246;27;46577;-84
2022/07/26 11:03:38;;;;;;;;;2.00;2.00;;;;;25.71;42.78;101312.72;5074882;27;45544;-83
2022/07/26 11:06:10;;;;;;;;;1.00;1.00;;;;;25.70;41.86;101303.75;5075074;27;45421;-83
2022/07/26 11:08:36;;;;;;;;;2.00;2.00;;;;;25.76;42.82;101302.78;5074823;28;45428;-83
2022/07/26 11:11:01;;;;;;;;;1.00;1.00;;;;;25.79;41.84;101318.88;5074689;27;45496;-84
2022/07/26 11:13:31;;;;;;;;;1.25;1.25;;;;;25.96;41.50;101332.03;5074874;27;45463;-83
2022/07/26 11:16:02;;;;;;;;;3.00;2.00;;;;;26.10;42.14;101337.13;5074795;27;45374;-84
2022/07/26 11:18:31;;;;;;;;;1.00;1.00;;;;;26.21;41.95;101330.63;5074743;27;45497;-83
2022/07/26 11:21:08;;;;;;;;;1.00;1.00;;;;;26.39;41.90;101325.75;5074392;27;46296;-83
2022/07/26 11:23:35;;;;;;;;;2.75;2.00;;;;;26.41;41.60;101302.38;5073193;27;45711;-83
2022/07/26 11:26:28;;;;;;;;;1.25;1.25;;;;;26.63;41.45;101327.94;5074745;27;45442;-83
2022/07/26 11:29:01;;;;;;;;;1.00;1.00;;;;;26.63;41.35;101297.41;5071839;28;45366;-83